sensor_id;sensor_type;location;lat;lon;timestamp;P1;durP1;ratioP1;P2;durP2;ratioP2
16029;SDS011;34770;49.272;11.070;2023-12-22T00:02:00;5.13;;;1.60;;
16029;SDS011;34770;49.272;11.070;2023-12-22T00:04:25;5.47;;;2.00;;
16029;SDS011;34770;49.272;11.070;2023-12-22T00:06:51;3.13;;;1.70;;
16029;SDS011;34770;49.272;11.070;2023-12-22T00:09:17;5.93;;;1.90;;
16029;SDS011;34770;49.272;11.070;2023-12-22T00:11:42;5.33;;;1.73;;
16029;SDS011;34770;49.272;11.070;2023-12-22T00:14:07;1.70;;;1.60;;
16029;SDS011;34770;49.272;11.070;2023-12-22T00:16:33;5.83;;;2.60;;
16029;SDS011;34770;49.272;11.070;2023-12-22T00:18:58;1.57;;;1.47;;
16029;SDS011;34770;49.272;11.070;2023-12-22T00:21:24;2.87;;;1.90;;
16029;SDS011;34770;49.272;11.070;2023-12-22T00:23:49;4.63;;;2.03;;
16029;SDS011;34770;49.272;11.070;2023-12-22T00:26:14;6.93;;;2.13;;
16029;SDS011;34770;49.272;11.070;2023-12-22T00:28:40;2.53;;;1.90;;
16029;SDS011;34770;49.272;11.070;2023-12-22T00:31:06;4.13;;;1.70;;
16029;SDS011;34770;49.272;11.070;2023-12-22T00:33:32;3.33;;;1.60;;
16029;SDS011;34770;49.272;11.070;2023-12-22T00:35:57;4.37;;;1.87;;
16029;SDS011;34770;49.272;11.070;2023-12-22T00:38:23;2.70;;;1.57;;
16029;SDS011;34770;49.272;11.070;2023-12-22T00:40:48;3.00;;;1.83;;
16029;SDS011;34770;49.272;11.070;2023-12-22T00:43:14;4.63;;;1.73;;
16029;SDS011;34770;49.272;11.070;2023-12-22T00:45:39;2.87;;;1.60;;
16029;SDS011;34770;49.272;11.070;2023-12-22T00:48:04;7.53;;;1.80;;
16029;SDS011;34770;49.272;11.070;2023-12-22T00:50:30;2.50;;;1.70;;
16029;SDS011;34770;49.272;11.070;2023-12-22T00:52:55;5.47;;;2.27;;
16029;SDS011;34770;49.272;11.070;2023-12-22T00:55:20;2.27;;;1.67;;
16029;SDS011;34770;49.272;11.070;2023-12-22T00:57:46;5.53;;;1.60;;
16029;SDS011;34770;49.272;11.070;2023-12-22T01:00:11;3.53;;;1.93;;
16029;SDS011;34770;49.272;11.070;2023-12-22T01:02:38;2.40;;;2.00;;
16029;SDS011;34770;49.272;11.070;2023-12-22T01:05:03;3.87;;;2.50;;
16029;SDS011;34770;49.272;11.070;2023-12-22T01:07:29;8.10;;;2.57;;
16029;SDS011;34770;49.272;11.070;2023-12-22T01:09:55;3.83;;;1.93;;
16029;SDS011;34770;49.272;11.070;2023-12-22T01:12:21;3.10;;;1.90;;
16029;SDS011;34770;49.272;11.070;2023-12-22T01:14:46;5.93;;;2.37;;
16029;SDS011;34770;49.272;11.070;2023-12-22T01:17:11;2.67;;;2.00;;
16029;SDS011;34770;49.272;11.070;2023-12-22T01:19:37;6.53;;;2.67;;
16029;SDS011;34770;49.272;11.070;2023-12-22T01:22:02;7.87;;;2.27;;
16029;SDS011;34770;49.272;11.070;2023-12-22T01:24:28;4.43;;;2.63;;
16029;SDS011;34770;49.272;11.070;2023-12-22T01:26:53;3.53;;;2.17;;
16029;SDS011;34770;49.272;11.070;2023-12-22T01:29:18;8.60;;;3.03;;
16029;SDS011;34770;49.272;11.070;2023-12-22T01:31:44;6.73;;;2.07;;
16029;SDS011;34770;49.272;11.070;2023-12-22T01:34:09;4.40;;;2.10;;
16029;SDS011;34770;49.272;11.070;2023-12-22T01:36:35;4.27;;;1.83;;
16029;SDS011;34770;49.272;11.070;2023-12-22T01:39:00;2.80;;;1.73;;
16029;SDS011;34770;49.272;11.070;2023-12-22T01:41:25;3.93;;;2.03;;
16029;SDS011;34770;49.272;11.070;2023-12-22T01:43:51;3.20;;;1.97;;
16029;SDS011;34770;49.272;11.070;2023-12-22T01:46:16;4.90;;;1.83;;
16029;SDS011;34770;49.272;11.070;2023-12-22T01:48:42;7.43;;;2.47;;
16029;SDS011;34770;49.272;11.070;2023-12-22T01:51:08;3.57;;;2.10;;
16029;SDS011;34770;49.272;11.070;2023-12-22T01:53:33;1.90;;;1.77;;
16029;SDS011;34770;49.272;11.070;2023-12-22T01:56:00;6.17;;;1.80;;
16029;SDS011;34770;49.272;11.070;2023-12-22T01:58:27;5.67;;;1.90;;
16029;SDS011;34770;49.272;11.070;2023-12-22T02:00:56;5.33;;;2.00;;
16029;SDS011;34770;49.272;11.070;2023-12-22T02:03:21;5.60;;;1.80;;
16029;SDS011;34770;49.272;11.070;2023-12-22T02:05:47;2.13;;;1.70;;
16029;SDS011;34770;49.272;11.070;2023-12-22T02:08:13;6.37;;;2.17;;
16029;SDS011;34770;49.272;11.070;2023-12-22T02:10:42;5.17;;;2.57;;
16029;SDS011;34770;49.272;11.070;2023-12-22T02:13:07;1.80;;;1.70;;
16029;SDS011;34770;49.272;11.070;2023-12-22T02:15:34;2.00;;;1.80;;
16029;SDS011;34770;49.272;11.070;2023-12-22T02:20:41;6.80;;;2.33;;
16029;SDS011;34770;49.272;11.070;2023-12-22T02:23:09;2.97;;;1.73;;
16029;SDS011;34770;49.272;11.070;2023-12-22T02:25:34;6.17;;;2.13;;
16029;SDS011;34770;49.272;11.070;2023-12-22T02:28:01;1.50;;;1.40;;
16029;SDS011;34770;49.272;11.070;2023-12-22T02:33:17;3.13;;;1.80;;
16029;SDS011;34770;49.272;11.070;2023-12-22T02:35:44;5.43;;;1.87;;
16029;SDS011;34770;49.272;11.070;2023-12-22T02:38:11;2.40;;;1.60;;
16029;SDS011;34770;49.272;11.070;2023-12-22T02:40:37;13.97;;;1.77;;
16029;SDS011;34770;49.272;11.070;2023-12-22T02:43:04;4.47;;;1.77;;
16029;SDS011;34770;49.272;11.070;2023-12-22T02:45:31;4.30;;;1.80;;
16029;SDS011;34770;49.272;11.070;2023-12-22T02:47:57;1.60;;;1.40;;
16029;SDS011;34770;49.272;11.070;2023-12-22T02:50:22;2.77;;;1.60;;
16029;SDS011;34770;49.272;11.070;2023-12-22T02:52:48;3.97;;;2.07;;
16029;SDS011;34770;49.272;11.070;2023-12-22T02:55:13;3.67;;;1.60;;
16029;SDS011;34770;49.272;11.070;2023-12-22T02:57:39;1.93;;;1.30;;
16029;SDS011;34770;49.272;11.070;2023-12-22T03:00:04;2.00;;;1.73;;
16029;SDS011;34770;49.272;11.070;2023-12-22T03:02:30;1.97;;;1.87;;
16029;SDS011;34770;49.272;11.070;2023-12-22T03:04:55;2.93;;;1.80;;
16029;SDS011;34770;49.272;11.070;2023-12-22T03:07:21;2.23;;;1.20;;
16029;SDS011;34770;49.272;11.070;2023-12-22T03:09:46;3.73;;;1.90;;
16029;SDS011;34770;49.272;11.070;2023-12-22T03:12:11;3.10;;;1.70;;
16029;SDS011;34770;49.272;11.070;2023-12-22T03:14:37;5.00;;;1.50;;
16029;SDS011;34770;49.272;11.070;2023-12-22T03:17:03;1.60;;;1.50;;
16029;SDS011;34770;49.272;11.070;2023-12-22T03:19:30;1.70;;;1.60;;
16029;SDS011;34770;49.272;11.070;2023-12-22T03:21:55;3.57;;;1.50;;
16029;SDS011;34770;49.272;11.070;2023-12-22T03:24:21;1.77;;;1.67;;
16029;SDS011;34770;49.272;11.070;2023-12-22T03:26:51;1.60;;;1.50;;
16029;SDS011;34770;49.272;11.070;2023-12-22T03:29:17;2.47;;;1.40;;
16029;SDS011;34770;49.272;11.070;2023-12-22T03:31:43;1.00;;;1.00;;
16029;SDS011;34770;49.272;11.070;2023-12-22T03:34:08;1.30;;;1.23;;
16029;SDS011;34770;49.272;11.070;2023-12-22T03:36:35;1.80;;;1.70;;
16029;SDS011;34770;49.272;11.070;2023-12-22T03:39:00;1.23;;;1.23;;
16029;SDS011;34770;49.272;11.070;2023-12-22T03:41:27;1.20;;;1.20;;
16029;SDS011;34770;49.272;11.070;2023-12-22T03:43:54;1.27;;;1.17;;
16029;SDS011;34770;49.272;11.070;2023-12-22T03:46:19;1.20;;;1.20;;
16029;SDS011;34770;49.272;11.070;2023-12-22T03:48:44;1.10;;;1.10;;
16029;SDS011;34770;49.272;11.070;2023-12-22T03:51:10;1.10;;;1.10;;
16029;SDS011;34770;49.272;11.070;2023-12-22T03:53:37;1.40;;;1.30;;
16029;SDS011;34770;49.272;11.070;2023-12-22T03:56:02;1.70;;;1.60;;
16029;SDS011;34770;49.272;11.070;2023-12-22T03:58:27;1.47;;;1.23;;
16029;SDS011;34770;49.272;11.070;2023-12-22T04:00:54;1.60;;;1.50;;
16029;SDS011;34770;49.272;11.070;2023-12-22T04:03:20;1.50;;;1.40;;
16029;SDS011;34770;49.272;11.070;2023-12-22T04:05:45;2.20;;;1.50;;
16029;SDS011;34770;49.272;11.070;2023-12-22T04:08:11;2.50;;;2.30;;
16029;SDS011;34770;49.272;11.070;2023-12-22T04:10:36;1.20;;;1.20;;
16029;SDS011;34770;49.272;11.070;2023-12-22T04:13:01;1.80;;;1.70;;
16029;SDS011;34770;49.272;11.070;2023-12-22T04:15:27;2.67;;;1.57;;
16029;SDS011;34770;49.272;11.070;2023-12-22T04:17:52;2.10;;;1.90;;
16029;SDS011;34770;49.272;11.070;2023-12-22T04:20:18;1.77;;;1.67;;
16029;SDS011;34770;49.272;11.070;2023-12-22T04:22:43;3.53;;;1.60;;
16029;SDS011;34770;49.272;11.070;2023-12-22T04:25:08;1.40;;;1.30;;
16029;SDS011;34770;49.272;11.070;2023-12-22T04:27:34;2.80;;;1.40;;
16029;SDS011;34770;49.272;11.070;2023-12-22T04:30:00;4.00;;;1.53;;
16029;SDS011;34770;49.272;11.070;2023-12-22T04:32:26;1.33;;;1.23;;
16029;SDS011;34770;49.272;11.070;2023-12-22T04:34:51;1.50;;;1.50;;
16029;SDS011;34770;49.272;11.070;2023-12-22T04:37:16;1.80;;;1.70;;
16029;SDS011;34770;49.272;11.070;2023-12-22T04:39:42;4.73;;;1.60;;
16029;SDS011;34770;49.272;11.070;2023-12-22T04:42:07;4.73;;;1.53;;
16029;SDS011;34770;49.272;11.070;2023-12-22T04:44:33;2.13;;;1.13;;
16029;SDS011;34770;49.272;11.070;2023-12-22T04:46:58;6.00;;;1.53;;
16029;SDS011;34770;49.272;11.070;2023-12-22T04:49:23;1.50;;;1.40;;
16029;SDS011;34770;49.272;11.070;2023-12-22T04:51:49;1.57;;;1.57;;
16029;SDS011;34770;49.272;11.070;2023-12-22T04:54:14;1.47;;;1.30;;
16029;SDS011;34770;49.272;11.070;2023-12-22T04:56:40;5.20;;;1.47;;
16029;SDS011;34770;49.272;11.070;2023-12-22T04:59:05;1.67;;;1.57;;
16029;SDS011;34770;49.272;11.070;2023-12-22T05:01:30;5.10;;;1.80;;
16029;SDS011;34770;49.272;11.070;2023-12-22T05:03:55;1.80;;;1.70;;
16029;SDS011;34770;49.272;11.070;2023-12-22T05:06:21;1.53;;;1.37;;
16029;SDS011;34770;49.272;11.070;2023-12-22T05:08:46;3.40;;;2.03;;
16029;SDS011;34770;49.272;11.070;2023-12-22T05:11:12;1.90;;;1.57;;
16029;SDS011;34770;49.272;11.070;2023-12-22T05:13:37;2.03;;;1.53;;
16029;SDS011;34770;49.272;11.070;2023-12-22T05:16:03;2.50;;;1.30;;
16029;SDS011;34770;49.272;11.070;2023-12-22T05:18:29;1.60;;;1.50;;
16029;SDS011;34770;49.272;11.070;2023-12-22T05:20:55;1.60;;;1.47;;
16029;SDS011;34770;49.272;11.070;2023-12-22T05:23:20;1.40;;;1.40;;
16029;SDS011;34770;49.272;11.070;2023-12-22T05:25:45;3.13;;;1.37;;
16029;SDS011;34770;49.272;11.070;2023-12-22T05:28:11;2.07;;;1.70;;
16029;SDS011;34770;49.272;11.070;2023-12-22T05:30:36;1.80;;;1.70;;
16029;SDS011;34770;49.272;11.070;2023-12-22T05:33:01;3.07;;;1.50;;
16029;SDS011;34770;49.272;11.070;2023-12-22T05:35:27;2.00;;;1.47;;
16029;SDS011;34770;49.272;11.070;2023-12-22T05:37:52;2.17;;;1.97;;
16029;SDS011;34770;49.272;11.070;2023-12-22T05:40:17;1.60;;;1.50;;
16029;SDS011;34770;49.272;11.070;2023-12-22T05:42:43;1.63;;;1.53;;
16029;SDS011;34770;49.272;11.070;2023-12-22T05:45:08;2.53;;;1.50;;
16029;SDS011;34770;49.272;11.070;2023-12-22T05:47:36;1.03;;;1.03;;
16029;SDS011;34770;49.272;11.070;2023-12-22T05:50:01;1.60;;;1.50;;
16029;SDS011;34770;49.272;11.070;2023-12-22T05:52:27;2.27;;;2.07;;
16029;SDS011;34770;49.272;11.070;2023-12-22T05:54:53;1.53;;;1.43;;
16029;SDS011;34770;49.272;11.070;2023-12-22T05:57:19;1.40;;;1.40;;
16029;SDS011;34770;49.272;11.070;2023-12-22T05:59:44;1.50;;;1.50;;
16029;SDS011;34770;49.272;11.070;2023-12-22T06:02:10;2.73;;;1.57;;
16029;SDS011;34770;49.272;11.070;2023-12-22T06:04:35;2.03;;;1.60;;
16029;SDS011;34770;49.272;11.070;2023-12-22T06:07:00;1.47;;;1.30;;
16029;SDS011;34770;49.272;11.070;2023-12-22T06:09:26;1.40;;;1.30;;
16029;SDS011;34770;49.272;11.070;2023-12-22T06:11:51;1.53;;;1.43;;
16029;SDS011;34770;49.272;11.070;2023-12-22T06:14:18;1.57;;;1.47;;
16029;SDS011;34770;49.272;11.070;2023-12-22T06:16:43;1.40;;;1.40;;
16029;SDS011;34770;49.272;11.070;2023-12-22T06:19:08;1.30;;;1.30;;
16029;SDS011;34770;49.272;11.070;2023-12-22T06:21:38;1.80;;;1.50;;
16029;SDS011;34770;49.272;11.070;2023-12-22T06:24:04;3.17;;;1.63;;
16029;SDS011;34770;49.272;11.070;2023-12-22T06:26:30;3.40;;;1.57;;
16029;SDS011;34770;49.272;11.070;2023-12-22T06:28:55;2.03;;;1.50;;
16029;SDS011;34770;49.272;11.070;2023-12-22T06:31:21;2.37;;;1.90;;
16029;SDS011;34770;49.272;11.070;2023-12-22T06:33:47;1.43;;;1.33;;
16029;SDS011;34770;49.272;11.070;2023-12-22T06:36:20;3.23;;;1.33;;
16029;SDS011;34770;49.272;11.070;2023-12-22T06:38:53;4.60;;;1.70;;
16029;SDS011;34770;49.272;11.070;2023-12-22T06:43:49;3.23;;;1.83;;
16029;SDS011;34770;49.272;11.070;2023-12-22T06:46:16;2.30;;;1.60;;
16029;SDS011;34770;49.272;11.070;2023-12-22T06:48:42;4.10;;;1.77;;
16029;SDS011;34770;49.272;11.070;2023-12-22T06:51:50;6.60;;;2.00;;
16029;SDS011;34770;49.272;11.070;2023-12-22T06:54:05;2.63;;;2.43;;
16029;SDS011;34770;49.272;11.070;2023-12-22T07:00:25;4.17;;;1.90;;
16029;SDS011;34770;49.272;11.070;2023-12-22T07:02:57;2.03;;;1.33;;
16029;SDS011;34770;49.272;11.070;2023-12-22T07:07:47;7.60;;;1.80;;
16029;SDS011;34770;49.272;11.070;2023-12-22T07:10:13;3.60;;;1.80;;
16029;SDS011;34770;49.272;11.070;2023-12-22T07:12:38;3.33;;;1.70;;
16029;SDS011;34770;49.272;11.070;2023-12-22T07:15:06;6.80;;;2.20;;
16029;SDS011;34770;49.272;11.070;2023-12-22T07:17:32;6.77;;;2.10;;
16029;SDS011;34770;49.272;11.070;2023-12-22T07:19:58;3.23;;;1.90;;
16029;SDS011;34770;49.272;11.070;2023-12-22T07:22:23;4.90;;;2.10;;
16029;SDS011;34770;49.272;11.070;2023-12-22T07:24:49;5.10;;;1.83;;
16029;SDS011;34770;49.272;11.070;2023-12-22T07:27:16;6.43;;;2.93;;
16029;SDS011;34770;49.272;11.070;2023-12-22T07:29:42;6.13;;;2.00;;
16029;SDS011;34770;49.272;11.070;2023-12-22T07:32:07;2.40;;;2.07;;
16029;SDS011;34770;49.272;11.070;2023-12-22T07:34:32;5.00;;;2.40;;
16029;SDS011;34770;49.272;11.070;2023-12-22T07:36:58;9.73;;;2.60;;
16029;SDS011;34770;49.272;11.070;2023-12-22T07:39:23;2.73;;;2.20;;
16029;SDS011;34770;49.272;11.070;2023-12-22T07:41:48;4.07;;;1.97;;
16029;SDS011;34770;49.272;11.070;2023-12-22T07:44:14;2.90;;;2.03;;
16029;SDS011;34770;49.272;11.070;2023-12-22T07:46:39;1.73;;;1.60;;
16029;SDS011;34770;49.272;11.070;2023-12-22T07:49:05;3.33;;;2.30;;
16029;SDS011;34770;49.272;11.070;2023-12-22T07:51:30;4.00;;;1.97;;
16029;SDS011;34770;49.272;11.070;2023-12-22T07:53:55;4.83;;;2.20;;
16029;SDS011;34770;49.272;11.070;2023-12-22T07:56:21;9.27;;;2.43;;
16029;SDS011;34770;49.272;11.070;2023-12-22T07:58:46;2.40;;;2.20;;
16029;SDS011;34770;49.272;11.070;2023-12-22T08:01:11;2.00;;;1.83;;
16029;SDS011;34770;49.272;11.070;2023-12-22T08:03:37;3.90;;;2.27;;
16029;SDS011;34770;49.272;11.070;2023-12-22T08:06:02;4.53;;;2.87;;
16029;SDS011;34770;49.272;11.070;2023-12-22T08:08:28;4.63;;;2.30;;
16029;SDS011;34770;49.272;11.070;2023-12-22T08:10:54;1.70;;;1.60;;
16029;SDS011;34770;49.272;11.070;2023-12-22T08:13:20;2.63;;;1.90;;
16029;SDS011;34770;49.272;11.070;2023-12-22T08:15:45;6.17;;;1.90;;
16029;SDS011;34770;49.272;11.070;2023-12-22T08:18:10;2.50;;;1.90;;
16029;SDS011;34770;49.272;11.070;2023-12-22T08:20:36;4.40;;;2.13;;
16029;SDS011;34770;49.272;11.070;2023-12-22T08:23:02;4.13;;;2.03;;
16029;SDS011;34770;49.272;11.070;2023-12-22T08:25:27;2.37;;;1.80;;
16029;SDS011;34770;49.272;11.070;2023-12-22T08:27:53;3.93;;;2.70;;
16029;SDS011;34770;49.272;11.070;2023-12-22T08:30:18;8.23;;;3.50;;
16029;SDS011;34770;49.272;11.070;2023-12-22T08:32:44;9.00;;;4.00;;
16029;SDS011;34770;49.272;11.070;2023-12-22T08:35:10;5.43;;;3.23;;
16029;SDS011;34770;49.272;11.070;2023-12-22T08:37:35;6.27;;;2.60;;
16029;SDS011;34770;49.272;11.070;2023-12-22T08:40:01;3.07;;;2.83;;
16029;SDS011;34770;49.272;11.070;2023-12-22T08:42:26;2.43;;;2.23;;
16029;SDS011;34770;49.272;11.070;2023-12-22T08:44:54;3.23;;;2.53;;
16029;SDS011;34770;49.272;11.070;2023-12-22T08:47:19;5.07;;;2.73;;
16029;SDS011;34770;49.272;11.070;2023-12-22T08:49:45;2.67;;;2.10;;
16029;SDS011;34770;49.272;11.070;2023-12-22T08:52:10;3.07;;;2.23;;
16029;SDS011;34770;49.272;11.070;2023-12-22T08:54:35;4.27;;;3.20;;
16029;SDS011;34770;49.272;11.070;2023-12-22T08:57:04;3.83;;;2.17;;
16029;SDS011;34770;49.272;11.070;2023-12-22T08:59:29;3.70;;;2.17;;
16029;SDS011;34770;49.272;11.070;2023-12-22T09:01:55;14.07;;;4.33;;
16029;SDS011;34770;49.272;11.070;2023-12-22T09:04:20;7.80;;;3.23;;
16029;SDS011;34770;49.272;11.070;2023-12-22T09:06:47;7.53;;;3.67;;
16029;SDS011;34770;49.272;11.070;2023-12-22T09:09:16;3.87;;;2.17;;
16029;SDS011;34770;49.272;11.070;2023-12-22T09:11:41;4.60;;;1.90;;
16029;SDS011;34770;49.272;11.070;2023-12-22T09:14:06;3.93;;;2.03;;
16029;SDS011;34770;49.272;11.070;2023-12-22T09:16:34;2.60;;;2.30;;
16029;SDS011;34770;49.272;11.070;2023-12-22T09:19:00;5.17;;;2.47;;
16029;SDS011;34770;49.272;11.070;2023-12-22T09:21:25;4.30;;;1.73;;
16029;SDS011;34770;49.272;11.070;2023-12-22T09:23:51;4.20;;;2.27;;
16029;SDS011;34770;49.272;11.070;2023-12-22T09:26:18;5.57;;;2.50;;
16029;SDS011;34770;49.272;11.070;2023-12-22T09:28:44;3.00;;;2.30;;
16029;SDS011;34770;49.272;11.070;2023-12-22T09:31:10;2.80;;;2.03;;
16029;SDS011;34770;49.272;11.070;2023-12-22T09:33:35;5.77;;;2.40;;
16029;SDS011;34770;49.272;11.070;2023-12-22T09:36:01;2.53;;;2.17;;
16029;SDS011;34770;49.272;11.070;2023-12-22T09:38:27;6.07;;;2.00;;
16029;SDS011;34770;49.272;11.070;2023-12-22T09:40:54;4.83;;;1.77;;
16029;SDS011;34770;49.272;11.070;2023-12-22T09:43:21;8.80;;;2.13;;
16029;SDS011;34770;49.272;11.070;2023-12-22T09:45:46;7.67;;;3.03;;
16029;SDS011;34770;49.272;11.070;2023-12-22T09:48:14;3.20;;;2.00;;
16029;SDS011;34770;49.272;11.070;2023-12-22T09:50:43;4.67;;;2.47;;
16029;SDS011;34770;49.272;11.070;2023-12-22T09:53:10;9.50;;;3.53;;
16029;SDS011;34770;49.272;11.070;2023-12-22T09:55:38;6.00;;;2.33;;
16029;SDS011;34770;49.272;11.070;2023-12-22T09:58:04;6.33;;;2.60;;
16029;SDS011;34770;49.272;11.070;2023-12-22T10:00:32;9.33;;;3.13;;
16029;SDS011;34770;49.272;11.070;2023-12-22T10:03:00;4.47;;;3.13;;
16029;SDS011;34770;49.272;11.070;2023-12-22T10:05:27;5.33;;;2.97;;
16029;SDS011;34770;49.272;11.070;2023-12-22T10:07:52;6.20;;;2.90;;
16029;SDS011;34770;49.272;11.070;2023-12-22T10:10:18;5.20;;;3.10;;
16029;SDS011;34770;49.272;11.070;2023-12-22T10:12:45;8.27;;;3.23;;
16029;SDS011;34770;49.272;11.070;2023-12-22T10:15:12;8.87;;;2.77;;
16029;SDS011;34770;49.272;11.070;2023-12-22T10:17:38;4.70;;;2.70;;
16029;SDS011;34770;49.272;11.070;2023-12-22T10:20:04;7.97;;;2.70;;
16029;SDS011;34770;49.272;11.070;2023-12-22T10:22:30;3.37;;;2.17;;
16029;SDS011;34770;49.272;11.070;2023-12-22T10:24:55;6.90;;;2.43;;
16029;SDS011;34770;49.272;11.070;2023-12-22T10:27:21;2.90;;;1.93;;
16029;SDS011;34770;49.272;11.070;2023-12-22T10:29:58;8.57;;;2.40;;
16029;SDS011;34770;49.272;11.070;2023-12-22T10:32:23;4.40;;;2.50;;
16029;SDS011;34770;49.272;11.070;2023-12-22T10:34:52;3.33;;;2.30;;
16029;SDS011;34770;49.272;11.070;2023-12-22T10:37:18;6.67;;;2.60;;
16029;SDS011;34770;49.272;11.070;2023-12-22T10:39:43;3.57;;;2.50;;
16029;SDS011;34770;49.272;11.070;2023-12-22T10:42:13;7.90;;;2.53;;
16029;SDS011;34770;49.272;11.070;2023-12-22T10:44:39;6.10;;;1.90;;
16029;SDS011;34770;49.272;11.070;2023-12-22T10:47:05;2.10;;;1.90;;
16029;SDS011;34770;49.272;11.070;2023-12-22T10:49:30;3.17;;;2.00;;
16029;SDS011;34770;49.272;11.070;2023-12-22T10:51:56;2.00;;;1.90;;
16029;SDS011;34770;49.272;11.070;2023-12-22T10:54:22;1.70;;;1.60;;
16029;SDS011;34770;49.272;11.070;2023-12-22T10:56:47;6.07;;;2.33;;
16029;SDS011;34770;49.272;11.070;2023-12-22T10:59:18;1.97;;;1.83;;
16029;SDS011;34770;49.272;11.070;2023-12-22T11:01:47;3.97;;;1.63;;
16029;SDS011;34770;49.272;11.070;2023-12-22T11:04:13;3.77;;;2.13;;
16029;SDS011;34770;49.272;11.070;2023-12-22T11:06:42;2.23;;;1.87;;
16029;SDS011;34770;49.272;11.070;2023-12-22T11:09:09;2.77;;;2.10;;
16029;SDS011;34770;49.272;11.070;2023-12-22T11:11:38;3.77;;;2.80;;
16029;SDS011;34770;49.272;11.070;2023-12-22T11:14:05;1.70;;;1.60;;
16029;SDS011;34770;49.272;11.070;2023-12-22T11:16:32;1.40;;;1.30;;
16029;SDS011;34770;49.272;11.070;2023-12-22T11:18:59;1.30;;;1.30;;
16029;SDS011;34770;49.272;11.070;2023-12-22T11:21:25;2.20;;;1.63;;
16029;SDS011;34770;49.272;11.070;2023-12-22T11:23:52;1.43;;;1.33;;
16029;SDS011;34770;49.272;11.070;2023-12-22T11:26:20;1.53;;;1.40;;
16029;SDS011;34770;49.272;11.070;2023-12-22T11:28:48;2.90;;;2.17;;
16029;SDS011;34770;49.272;11.070;2023-12-22T11:31:16;2.70;;;1.87;;
16029;SDS011;34770;49.272;11.070;2023-12-22T11:33:45;3.80;;;3.50;;
16029;SDS011;34770;49.272;11.070;2023-12-22T11:36:13;3.93;;;1.63;;
16029;SDS011;34770;49.272;11.070;2023-12-22T11:38:42;6.87;;;2.13;;
16029;SDS011;34770;49.272;11.070;2023-12-22T11:41:10;4.30;;;2.97;;
16029;SDS011;34770;49.272;11.070;2023-12-22T11:43:40;3.83;;;2.43;;
16029;SDS011;34770;49.272;11.070;2023-12-22T11:46:07;5.30;;;1.90;;
16029;SDS011;34770;49.272;11.070;2023-12-22T11:48:34;4.80;;;2.27;;
16029;SDS011;34770;49.272;11.070;2023-12-22T11:50:59;3.70;;;1.93;;
16029;SDS011;34770;49.272;11.070;2023-12-22T11:53:27;4.80;;;2.13;;
16029;SDS011;34770;49.272;11.070;2023-12-22T11:56:13;3.30;;;2.27;;
16029;SDS011;34770;49.272;11.070;2023-12-22T12:01:24;3.10;;;2.27;;
16029;SDS011;34770;49.272;11.070;2023-12-22T12:03:56;4.20;;;2.30;;
16029;SDS011;34770;49.272;11.070;2023-12-22T12:08:54;5.43;;;2.07;;
16029;SDS011;34770;49.272;11.070;2023-12-22T12:11:20;6.60;;;3.77;;
16029;SDS011;34770;49.272;11.070;2023-12-22T12:13:46;3.50;;;2.15;;
16029;SDS011;34770;49.272;11.070;2023-12-22T12:16:13;7.33;;;2.53;;
16029;SDS011;34770;49.272;11.070;2023-12-22T12:18:40;9.30;;;3.03;;
16029;SDS011;34770;49.272;11.070;2023-12-22T12:21:06;12.43;;;3.47;;
16029;SDS011;34770;49.272;11.070;2023-12-22T12:23:33;6.37;;;2.70;;
16029;SDS011;34770;49.272;11.070;2023-12-22T12:25:59;8.60;;;2.87;;
16029;SDS011;34770;49.272;11.070;2023-12-22T12:28:25;7.20;;;3.17;;
16029;SDS011;34770;49.272;11.070;2023-12-22T12:30:56;5.87;;;3.23;;
16029;SDS011;34770;49.272;11.070;2023-12-22T12:33:24;5.63;;;2.70;;
16029;SDS011;34770;49.272;11.070;2023-12-22T12:35:50;11.43;;;4.50;;
16029;SDS011;34770;49.272;11.070;2023-12-22T12:38:18;10.68;;;3.58;;
16029;SDS011;34770;49.272;11.070;2023-12-22T12:40:50;12.07;;;3.30;;
16029;SDS011;34770;49.272;11.070;2023-12-22T12:43:16;14.45;;;3.85;;
16029;SDS011;34770;49.272;11.070;2023-12-22T12:45:42;17.92;;;3.53;;
16029;SDS011;34770;49.272;11.070;2023-12-22T12:48:08;15.47;;;3.33;;
16029;SDS011;34770;49.272;11.070;2023-12-22T12:50:34;9.20;;;4.20;;
16029;SDS011;34770;49.272;11.070;2023-12-22T12:53:00;15.85;;;3.90;;
16029;SDS011;34770;49.272;11.070;2023-12-22T12:55:26;10.13;;;3.58;;
16029;SDS011;34770;49.272;11.070;2023-12-22T12:57:52;7.50;;;2.90;;
16029;SDS011;34770;49.272;11.070;2023-12-22T13:00:24;13.33;;;3.47;;
16029;SDS011;34770;49.272;11.070;2023-12-22T13:02:51;8.90;;;3.03;;
16029;SDS011;34770;49.272;11.070;2023-12-22T13:05:23;11.07;;;3.37;;
16029;SDS011;34770;49.272;11.070;2023-12-22T13:07:49;9.17;;;3.30;;
16029;SDS011;34770;49.272;11.070;2023-12-22T13:10:24;10.60;;;3.23;;
16029;SDS011;34770;49.272;11.070;2023-12-22T13:12:54;8.30;;;2.85;;
16029;SDS011;34770;49.272;11.070;2023-12-22T13:15:20;5.20;;;2.65;;
16029;SDS011;34770;49.272;11.070;2023-12-22T13:17:49;6.13;;;2.53;;
16029;SDS011;34770;49.272;11.070;2023-12-22T13:20:15;8.98;;;2.80;;
16029;SDS011;34770;49.272;11.070;2023-12-22T13:22:40;6.28;;;3.35;;
16029;SDS011;34770;49.272;11.070;2023-12-22T13:25:06;12.43;;;3.03;;
16029;SDS011;34770;49.272;11.070;2023-12-22T13:27:43;12.07;;;3.20;;
16029;SDS011;34770;49.272;11.070;2023-12-22T13:30:10;4.10;;;3.35;;
16029;SDS011;34770;49.272;11.070;2023-12-22T13:32:35;8.13;;;3.03;;
16029;SDS011;34770;49.272;11.070;2023-12-22T13:35:01;6.40;;;3.27;;
16029;SDS011;34770;49.272;11.070;2023-12-22T13:37:30;11.32;;;3.10;;
16029;SDS011;34770;49.272;11.070;2023-12-22T13:39:56;5.07;;;3.20;;
16029;SDS011;34770;49.272;11.070;2023-12-22T13:42:22;5.57;;;2.08;;
16029;SDS011;34770;49.272;11.070;2023-12-22T13:44:49;5.70;;;2.37;;
16029;SDS011;34770;49.272;11.070;2023-12-22T13:47:17;6.60;;;2.38;;
16029;SDS011;34770;49.272;11.070;2023-12-22T13:49:45;4.72;;;2.25;;
16029;SDS011;34770;49.272;11.070;2023-12-22T13:52:29;2.80;;;2.10;;
16029;SDS011;34770;49.272;11.070;2023-12-22T13:55:00;4.47;;;2.08;;
16029;SDS011;34770;49.272;11.070;2023-12-22T13:57:26;4.13;;;1.70;;
16029;SDS011;34770;49.272;11.070;2023-12-22T13:59:51;2.50;;;2.17;;
16029;SDS011;34770;49.272;11.070;2023-12-22T14:02:18;6.60;;;2.72;;
16029;SDS011;34770;49.272;11.070;2023-12-22T14:04:45;4.82;;;1.70;;
16029;SDS011;34770;49.272;11.070;2023-12-22T14:07:10;3.78;;;1.88;;
16029;SDS011;34770;49.272;11.070;2023-12-22T14:09:36;2.60;;;2.10;;
16029;SDS011;34770;49.272;11.070;2023-12-22T14:12:03;1.52;;;1.40;;
16029;SDS011;34770;49.272;11.070;2023-12-22T14:14:30;6.43;;;1.73;;
16029;SDS011;34770;49.272;11.070;2023-12-22T14:16:56;3.58;;;1.98;;
16029;SDS011;34770;49.272;11.070;2023-12-22T14:19:21;2.35;;;1.60;;
16029;SDS011;34770;49.272;11.070;2023-12-22T14:21:47;2.63;;;2.33;;
16029;SDS011;34770;49.272;11.070;2023-12-22T14:24:12;1.95;;;1.55;;
16029;SDS011;34770;49.272;11.070;2023-12-22T14:26:53;3.17;;;1.75;;
16029;SDS011;34770;49.272;11.070;2023-12-22T14:29:20;3.00;;;1.90;;
16029;SDS011;34770;49.272;11.070;2023-12-22T14:31:47;1.70;;;1.60;;
16029;SDS011;34770;49.272;11.070;2023-12-22T14:34:16;1.77;;;1.55;;
16029;SDS011;34770;49.272;11.070;2023-12-22T14:36:42;3.13;;;1.67;;
16029;SDS011;34770;49.272;11.070;2023-12-22T14:39:09;1.95;;;1.80;;
16029;SDS011;34770;49.272;11.070;2023-12-22T14:41:36;1.52;;;1.50;;
16029;SDS011;34770;49.272;11.070;2023-12-22T14:44:01;2.85;;;1.55;;
16029;SDS011;34770;49.272;11.070;2023-12-22T14:46:27;3.22;;;1.73;;
16029;SDS011;34770;49.272;11.070;2023-12-22T14:48:53;1.42;;;1.33;;